sensor_id;sensor_type;location;lat;lon;timestamp;P1;durP1;ratioP1;P2;durP2;ratioP2
5630;SDS011;2837;50.990;7.124;2023-03-14T06:01:04;152.07;;;6.47;;
5630;SDS011;2837;50.990;7.124;2023-03-14T06:03:30;155.30;;;6.73;;
5630;SDS011;2837;50.990;7.124;2023-03-14T06:05:56;153.87;;;6.20;;
5630;SDS011;2837;50.990;7.124;2023-03-14T06:08:22;152.77;;;6.60;;
5630;SDS011;2837;50.990;7.124;2023-03-14T06:10:48;152.13;;;6.70;;
5630;SDS011;2837;50.990;7.124;2023-03-14T06:13:13;151.70;;;6.63;;
5630;SDS011;2837;50.990;7.124;2023-03-14T06:15:40;151.67;;;6.50;;
5630;SDS011;2837;50.990;7.124;2023-03-14T06:18:06;152.97;;;7.00;;
5630;SDS011;2837;50.990;7.124;2023-03-14T06:20:32;152.83;;;6.93;;
5630;SDS011;2837;50.990;7.124;2023-03-14T06:22:58;151.07;;;6.20;;
5630;SDS011;2837;50.990;7.124;2023-03-14T06:25:23;151.27;;;6.30;;
5630;SDS011;2837;50.990;7.124;2023-03-14T06:27:49;151.07;;;6.10;;
5630;SDS011;2837;50.990;7.124;2023-03-14T06:30:15;153.17;;;6.00;;
5630;SDS011;2837;50.990;7.124;2023-03-14T06:32:41;151.93;;;6.63;;
5630;SDS011;2837;50.990;7.124;2023-03-14T06:35:06;155.47;;;7.10;;
5630;SDS011;2837;50.990;7.124;2023-03-14T06:37:33;151.40;;;6.20;;
5630;SDS011;2837;50.990;7.124;2023-03-14T06:39:58;152.07;;;6.50;;
5630;SDS011;2837;50.990;7.124;2023-03-14T06:42:24;150.97;;;6.03;;
5630;SDS011;2837;50.990;7.124;2023-03-14T06:44:50;151.07;;;6.30;;
5630;SDS011;2837;50.990;7.124;2023-03-14T06:47:15;151.67;;;6.30;;
5630;SDS011;2837;50.990;7.124;2023-03-14T06:49:41;151.47;;;6.50;;
5630;SDS011;2837;50.990;7.124;2023-03-14T06:52:06;151.77;;;6.27;;
5630;SDS011;2837;50.990;7.124;2023-03-14T06:54:32;151.47;;;6.60;;
5630;SDS011;2837;50.990;7.124;2023-03-14T06:56:58;151.07;;;6.20;;
5630;SDS011;2837;50.990;7.124;2023-03-14T06:59:23;151.27;;;6.87;;
5630;SDS011;2837;50.990;7.124;2023-03-14T07:01:49;152.27;;;7.23;;
5630;SDS011;2837;50.990;7.124;2023-03-14T07:04:15;152.20;;;7.10;;
5630;SDS011;2837;50.990;7.124;2023-03-14T07:06:41;151.10;;;6.53;;
5630;SDS011;2837;50.990;7.124;2023-03-14T07:09:09;151.50;;;6.60;;
5630;SDS011;2837;50.990;7.124;2023-03-14T07:11:36;150.87;;;6.30;;
5630;SDS011;2837;50.990;7.124;2023-03-14T07:14:01;150.90;;;6.20;;
5630;SDS011;2837;50.990;7.124;2023-03-14T07:16:27;151.47;;;6.80;;
5630;SDS011;2837;50.990;7.124;2023-03-14T07:18:56;150.80;;;6.50;;
5630;SDS011;2837;50.990;7.124;2023-03-14T07:21:22;151.47;;;6.90;;
5630;SDS011;2837;50.990;7.124;2023-03-14T07:23:47;151.10;;;7.00;;
5630;SDS011;2837;50.990;7.124;2023-03-14T07:26:13;150.83;;;6.83;;
5630;SDS011;2837;50.990;7.124;2023-03-14T07:28:39;150.50;;;6.30;;
5630;SDS011;2837;50.990;7.124;2023-03-14T07:31:04;150.87;;;6.47;;
5630;SDS011;2837;50.990;7.124;2023-03-14T07:33:30;150.70;;;6.80;;
5630;SDS011;2837;50.990;7.124;2023-03-14T07:35:56;150.87;;;6.40;;
5630;SDS011;2837;50.990;7.124;2023-03-14T07:38:21;151.40;;;6.60;;
5630;SDS011;2837;50.990;7.124;2023-03-14T07:40:47;150.60;;;6.40;;
5630;SDS011;2837;50.990;7.124;2023-03-14T07:43:12;150.83;;;6.30;;
5630;SDS011;2837;50.990;7.124;2023-03-14T07:45:38;150.50;;;6.17;;
5630;SDS011;2837;50.990;7.124;2023-03-14T07:48:03;150.77;;;6.27;;
5630;SDS011;2837;50.990;7.124;2023-03-14T07:50:29;151.13;;;6.83;;
5630;SDS011;2837;50.990;7.124;2023-03-14T07:52:55;151.60;;;6.60;;
5630;SDS011;2837;50.990;7.124;2023-03-14T07:55:20;154.13;;;7.03;;
5630;SDS011;2837;50.990;7.124;2023-03-14T07:57:46;151.17;;;6.60;;
5630;SDS011;2837;50.990;7.124;2023-03-14T08:00:12;152.13;;;7.20;;
5630;SDS011;2837;50.990;7.124;2023-03-14T08:02:39;150.87;;;6.70;;
5630;SDS011;2837;50.990;7.124;2023-03-14T08:05:05;151.53;;;6.87;;
5630;SDS011;2837;50.990;7.124;2023-03-14T08:07:31;150.40;;;6.80;;
5630;SDS011;2837;50.990;7.124;2023-03-14T08:09:57;149.90;;;6.27;;
5630;SDS011;2837;50.990;7.124;2023-03-14T08:12:23;150.73;;;6.47;;
5630;SDS011;2837;50.990;7.124;2023-03-14T08:14:48;150.80;;;6.73;;
5630;SDS011;2837;50.990;7.124;2023-03-14T08:17:14;150.40;;;6.70;;
5630;SDS011;2837;50.990;7.124;2023-03-14T08:19:40;150.83;;;6.40;;
5630;SDS011;2837;50.990;7.124;2023-03-14T08:22:06;150.77;;;6.60;;
5630;SDS011;2837;50.990;7.124;2023-03-14T08:24:32;150.37;;;6.30;;
5630;SDS011;2837;50.990;7.124;2023-03-14T08:26:58;150.47;;;6.70;;
5630;SDS011;2837;50.990;7.124;2023-03-14T08:29:24;150.60;;;6.90;;
5630;SDS011;2837;50.990;7.124;2023-03-14T08:31:49;150.70;;;6.50;;
5630;SDS011;2837;50.990;7.124;2023-03-14T08:34:15;151.47;;;7.27;;
5630;SDS011;2837;50.990;7.124;2023-03-14T08:36:41;151.00;;;6.97;;
5630;SDS011;2837;50.990;7.124;2023-03-14T08:39:07;151.10;;;7.00;;
5630;SDS011;2837;50.990;7.124;2023-03-14T08:41:33;151.00;;;6.70;;
5630;SDS011;2837;50.990;7.124;2023-03-14T08:44:00;150.93;;;6.97;;
5630;SDS011;2837;50.990;7.124;2023-03-14T08:46:25;150.87;;;7.10;;
5630;SDS011;2837;50.990;7.124;2023-03-14T08:48:51;150.27;;;6.50;;
5630;SDS011;2837;50.990;7.124;2023-03-14T08:51:16;150.60;;;6.40;;
5630;SDS011;2837;50.990;7.124;2023-03-14T08:53:42;150.57;;;6.30;;
5630;SDS011;2837;50.990;7.124;2023-03-14T08:56:08;152.07;;;6.70;;
5630;SDS011;2837;50.990;7.124;2023-03-14T08:58:35;151.47;;;7.00;;
5630;SDS011;2837;50.990;7.124;2023-03-14T09:01:03;150.97;;;6.70;;
5630;SDS011;2837;50.990;7.124;2023-03-14T09:03:33;150.83;;;6.50;;
5630;SDS011;2837;50.990;7.124;2023-03-14T09:06:05;150.47;;;6.60;;
5630;SDS011;2837;50.990;7.124;2023-03-14T09:08:35;151.37;;;7.13;;
5630;SDS011;2837;50.990;7.124;2023-03-14T09:11:02;150.43;;;6.23;;
5630;SDS011;2837;50.990;7.124;2023-03-14T09:13:28;150.27;;;6.60;;
5630;SDS011;2837;50.990;7.124;2023-03-14T09:15:56;151.07;;;6.90;;
5630;SDS011;2837;50.990;7.124;2023-03-14T09:18:22;150.80;;;6.60;;
5630;SDS011;2837;50.990;7.124;2023-03-14T09:20:48;150.67;;;7.00;;
5630;SDS011;2837;50.990;7.124;2023-03-14T09:23:14;150.57;;;6.70;;
5630;SDS011;2837;50.990;7.124;2023-03-14T09:25:40;150.37;;;6.40;;
5630;SDS011;2837;50.990;7.124;2023-03-14T09:28:06;151.47;;;6.87;;
5630;SDS011;2837;50.990;7.124;2023-03-14T09:30:31;151.37;;;7.03;;
5630;SDS011;2837;50.990;7.124;2023-03-14T09:32:57;152.50;;;7.20;;
5630;SDS011;2837;50.990;7.124;2023-03-14T09:35:24;150.57;;;6.53;;
5630;SDS011;2837;50.990;7.124;2023-03-14T09:37:50;150.57;;;6.33;;
5630;SDS011;2837;50.990;7.124;2023-03-14T09:40:16;151.37;;;6.80;;
5630;SDS011;2837;50.990;7.124;2023-03-14T09:42:44;150.77;;;6.30;;
5630;SDS011;2837;50.990;7.124;2023-03-14T09:45:18;152.17;;;6.70;;
5630;SDS011;2837;50.990;7.124;2023-03-14T09:47:50;151.10;;;7.13;;
5630;SDS011;2837;50.990;7.124;2023-03-14T09:50:16;151.07;;;6.53;;
5630;SDS011;2837;50.990;7.124;2023-03-14T09:52:42;151.67;;;6.80;;
5630;SDS011;2837;50.990;7.124;2023-03-14T09:55:20;150.67;;;6.40;;
5630;SDS011;2837;50.990;7.124;2023-03-14T09:57:47;150.90;;;6.40;;
5630;SDS011;2837;50.990;7.124;2023-03-14T10:00:18;151.17;;;6.20;;
5630;SDS011;2837;50.990;7.124;2023-03-14T10:02:54;151.50;;;6.53;;
5630;SDS011;2837;50.990;7.124;2023-03-14T10:05:23;151.07;;;6.30;;
5630;SDS011;2837;50.990;7.124;2023-03-14T10:07:52;152.23;;;6.63;;
5630;SDS011;2837;50.990;7.124;2023-03-14T10:10:23;151.83;;;6.20;;
5630;SDS011;2837;50.990;7.124;2023-03-14T10:12:58;151.53;;;6.20;;
5630;SDS011;2837;50.990;7.124;2023-03-14T10:15:30;153.40;;;6.10;;
5630;SDS011;2837;50.990;7.124;2023-03-14T10:17:58;152.67;;;6.60;;
5630;SDS011;2837;50.990;7.124;2023-03-14T10:20:27;152.47;;;6.20;;
5630;SDS011;2837;50.990;7.124;2023-03-14T10:23:04;153.47;;;6.63;;
5630;SDS011;2837;50.990;7.124;2023-03-14T10:26:03;153.53;;;6.40;;
5630;SDS011;2837;50.990;7.124;2023-03-14T10:28:34;153.20;;;6.10;;
5630;SDS011;2837;50.990;7.124;2023-03-14T10:31:04;152.10;;;6.10;;
5630;SDS011;2837;50.990;7.124;2023-03-14T10:33:31;153.97;;;6.80;;
5630;SDS011;2837;50.990;7.124;2023-03-14T10:38:43;153.60;;;7.00;;
5630;SDS011;2837;50.990;7.124;2023-03-14T10:41:14;153.50;;;6.80;;
5630;SDS011;2837;50.990;7.124;2023-03-14T10:43:42;153.73;;;6.90;;
5630;SDS011;2837;50.990;7.124;2023-03-14T10:46:09;153.97;;;6.93;;
5630;SDS011;2837;50.990;7.124;2023-03-14T10:48:39;153.67;;;7.00;;
5630;SDS011;2837;50.990;7.124;2023-03-14T10:53:40;153.97;;;6.83;;
5630;SDS011;2837;50.990;7.124;2023-03-14T10:56:15;153.47;;;6.77;;
5630;SDS011;2837;50.990;7.124;2023-03-14T10:58:49;152.90;;;6.53;;
5630;SDS011;2837;50.990;7.124;2023-03-14T11:05:03;153.93;;;6.67;;
5630;SDS011;2837;50.990;7.124;2023-03-14T11:07:39;154.57;;;6.70;;
5630;SDS011;2837;50.990;7.124;2023-03-14T11:10:14;152.87;;;6.50;;
5630;SDS011;2837;50.990;7.124;2023-03-14T11:15:39;155.23;;;6.80;;
5630;SDS011;2837;50.990;7.124;2023-03-14T11:18:18;154.37;;;7.07;;
5630;SDS011;2837;50.990;7.124;2023-03-14T11:26:12;152.67;;;6.40;;
5630;SDS011;2837;50.990;7.124;2023-03-14T11:29:26;153.97;;;6.53;;
5630;SDS011;2837;50.990;7.124;2023-03-14T11:31:57;153.00;;;6.40;;
5630;SDS011;2837;50.990;7.124;2023-03-14T11:34:37;153.47;;;6.83;;
5630;SDS011;2837;50.990;7.124;2023-03-14T11:37:29;153.50;;;6.60;;
5630;SDS011;2837;50.990;7.124;2023-03-14T11:39:59;153.70;;;6.83;;
5630;SDS011;2837;50.990;7.124;2023-03-14T11:42:29;153.83;;;6.40;;
5630;SDS011;2837;50.990;7.124;2023-03-14T11:44:57;153.70;;;6.90;;
5630;SDS011;2837;50.990;7.124;2023-03-14T11:47:26;154.13;;;6.40;;
5630;SDS011;2837;50.990;7.124;2023-03-14T11:52:53;153.93;;;6.60;;
5630;SDS011;2837;50.990;7.124;2023-03-14T11:55:30;154.17;;;6.70;;
5630;SDS011;2837;50.990;7.124;2023-03-14T12:00:48;153.67;;;6.03;;
5630;SDS011;2837;50.990;7.124;2023-03-14T12:06:38;153.77;;;6.60;;
5630;SDS011;2837;50.990;7.124;2023-03-14T12:09:13;154.17;;;6.47;;
5630;SDS011;2837;50.990;7.124;2023-03-14T12:11:51;155.30;;;6.93;;
5630;SDS011;2837;50.990;7.124;2023-03-14T12:17:41;155.00;;;6.90;;
5630;SDS011;2837;50.990;7.124;2023-03-14T12:20:04;154.63;;;6.50;;
5630;SDS011;2837;50.990;7.124;2023-03-14T12:22:52;155.03;;;6.83;;
5630;SDS011;2837;50.990;7.124;2023-03-14T12:25:22;155.57;;;7.30;;
5630;SDS011;2837;50.990;7.124;2023-03-14T12:35:42;158.47;;;7.90;;
5630;SDS011;2837;50.990;7.124;2023-03-14T12:38:13;156.27;;;7.80;;
5630;SDS011;2837;50.990;7.124;2023-03-14T12:41:06;156.57;;;7.87;;
5630;SDS011;2837;50.990;7.124;2023-03-14T12:43:46;156.47;;;7.60;;
5630;SDS011;2837;50.990;7.124;2023-03-14T12:51:35;157.30;;;7.33;;
5630;SDS011;2837;50.990;7.124;2023-03-14T12:59:29;156.10;;;7.67;;
5630;SDS011;2837;50.990;7.124;2023-03-14T13:02:02;154.27;;;6.80;;
5630;SDS011;2837;50.990;7.124;2023-03-14T13:04:32;155.90;;;7.20;;
5630;SDS011;2837;50.990;7.124;2023-03-14T13:07:12;155.27;;;7.37;;
5630;SDS011;2837;50.990;7.124;2023-03-14T13:12:23;156.20;;;7.00;;
5630;SDS011;2837;50.990;7.124;2023-03-14T13:14:52;153.80;;;6.37;;
5630;SDS011;2837;50.990;7.124;2023-03-14T13:17:32;155.57;;;6.90;;
5630;SDS011;2837;50.990;7.124;2023-03-14T13:20:00;155.50;;;7.20;;
5630;SDS011;2837;50.990;7.124;2023-03-14T13:22:34;155.17;;;7.30;;
5630;SDS011;2837;50.990;7.124;2023-03-14T13:25:03;155.10;;;7.60;;
5630;SDS011;2837;50.990;7.124;2023-03-14T13:27:32;156.20;;;7.30;;
5630;SDS011;2837;50.990;7.124;2023-03-14T13:30:04;157.73;;;7.10;;
5630;SDS011;2837;50.990;7.124;2023-03-14T13:32:39;155.03;;;7.00;;
5630;SDS011;2837;50.990;7.124;2023-03-14T13:35:43;154.37;;;6.80;;
5630;SDS011;2837;50.990;7.124;2023-03-14T13:38:13;154.73;;;7.10;;
5630;SDS011;2837;50.990;7.124;2023-03-14T13:40:45;156.40;;;7.23;;
5630;SDS011;2837;50.990;7.124;2023-03-14T13:43:13;157.77;;;7.30;;
5630;SDS011;2837;50.990;7.124;2023-03-14T13:48:28;155.20;;;7.00;;
5630;SDS011;2837;50.990;7.124;2023-03-14T13:53:29;156.40;;;7.30;;
5630;SDS011;2837;50.990;7.124;2023-03-14T13:55:55;155.60;;;7.10;;
5630;SDS011;2837;50.990;7.124;2023-03-14T13:58:22;154.83;;;7.10;;
5630;SDS011;2837;50.990;7.124;2023-03-14T14:00:53;154.73;;;6.60;;
5630;SDS011;2837;50.990;7.124;2023-03-14T14:03:21;155.00;;;7.10;;
5630;SDS011;2837;50.990;7.124;2023-03-14T14:05:47;157.37;;;7.33;;
5630;SDS011;2837;50.990;7.124;2023-03-14T14:08:13;159.87;;;7.33;;
5630;SDS011;2837;50.990;7.124;2023-03-14T14:10:39;157.30;;;8.07;;
5630;SDS011;2837;50.990;7.124;2023-03-14T14:13:05;155.80;;;6.70;;
5630;SDS011;2837;50.990;7.124;2023-03-14T14:15:41;156.43;;;7.00;;
5630;SDS011;2837;50.990;7.124;2023-03-14T14:18:10;159.50;;;6.90;;
5630;SDS011;2837;50.990;7.124;2023-03-14T14:20:42;155.47;;;7.03;;
5630;SDS011;2837;50.990;7.124;2023-03-14T14:23:11;155.40;;;6.90;;
5630;SDS011;2837;50.990;7.124;2023-03-14T14:25:38;158.20;;;6.90;;
5630;SDS011;2837;50.990;7.124;2023-03-14T14:30:59;160.60;;;7.53;;
5630;SDS011;2837;50.990;7.124;2023-03-14T14:33:26;158.47;;;6.60;;
5630;SDS011;2837;50.990;7.124;2023-03-14T14:35:53;158.57;;;6.47;;
5630;SDS011;2837;50.990;7.124;2023-03-14T14:38:21;158.27;;;6.93;;
5630;SDS011;2837;50.990;7.124;2023-03-14T14:40:49;157.67;;;7.17;;
5630;SDS011;2837;50.990;7.124;2023-03-14T14:43:23;160.97;;;7.80;;
5630;SDS011;2837;50.990;7.124;2023-03-14T14:45:51;162.27;;;7.60;;
5630;SDS011;2837;50.990;7.124;2023-03-14T14:48:20;160.33;;;7.43;;
5630;SDS011;2837;50.990;7.124;2023-03-14T14:51:01;163.00;;;7.00;;
5630;SDS011;2837;50.990;7.124;2023-03-14T14:53:41;161.40;;;7.57;;
5630;SDS011;2837;50.990;7.124;2023-03-14T14:56:25;157.70;;;7.73;;
5630;SDS011;2837;50.990;7.124;2023-03-14T14:58:56;159.50;;;7.80;;
5630;SDS011;2837;50.990;7.124;2023-03-14T15:01:24;159.67;;;7.60;;
5630;SDS011;2837;50.990;7.124;2023-03-14T15:03:55;158.53;;;7.50;;
5630;SDS011;2837;50.990;7.124;2023-03-14T15:06:21;162.40;;;7.47;;
5630;SDS011;2837;50.990;7.124;2023-03-14T15:08:48;160.03;;;7.43;;
5630;SDS011;2837;50.990;7.124;2023-03-14T15:11:17;162.47;;;7.50;;
5630;SDS011;2837;50.990;7.124;2023-03-14T15:13:48;158.93;;;7.10;;
5630;SDS011;2837;50.990;7.124;2023-03-14T15:16:19;164.80;;;7.33;;
5630;SDS011;2837;50.990;7.124;2023-03-14T15:18:50;161.37;;;7.30;;
5630;SDS011;2837;50.990;7.124;2023-03-14T15:21:20;163.03;;;7.70;;
5630;SDS011;2837;50.990;7.124;2023-03-14T15:23:46;159.13;;;6.60;;
5630;SDS011;2837;50.990;7.124;2023-03-14T15:26:13;165.30;;;7.60;;
5630;SDS011;2837;50.990;7.124;2023-03-14T15:28:42;157.80;;;7.50;;
5630;SDS011;2837;50.990;7.124;2023-03-14T15:31:08;156.97;;;8.07;;
5630;SDS011;2837;50.990;7.124;2023-03-14T15:33:35;160.70;;;7.70;;
5630;SDS011;2837;50.990;7.124;2023-03-14T15:36:01;158.17;;;7.13;;
5630;SDS011;2837;50.990;7.124;2023-03-14T15:38:28;158.07;;;7.00;;
5630;SDS011;2837;50.990;7.124;2023-03-14T15:40:54;161.73;;;7.70;;
5630;SDS011;2837;50.990;7.124;2023-03-14T15:43:19;160.00;;;7.53;;
5630;SDS011;2837;50.990;7.124;2023-03-14T15:45:45;158.07;;;7.50;;
5630;SDS011;2837;50.990;7.124;2023-03-14T15:48:18;160.47;;;8.00;;
5630;SDS011;2837;50.990;7.124;2023-03-14T15:50:46;160.70;;;7.87;;
5630;SDS011;2837;50.990;7.124;2023-03-14T15:53:11;158.80;;;7.37;;
5630;SDS011;2837;50.990;7.124;2023-03-14T15:55:38;155.83;;;7.40;;
5630;SDS011;2837;50.990;7.124;2023-03-14T15:58:03;158.77;;;7.27;;
5630;SDS011;2837;50.990;7.124;2023-03-14T16:00:29;159.67;;;7.77;;
5630;SDS011;2837;50.990;7.124;2023-03-14T16:02:55;155.40;;;6.80;;
5630;SDS011;2837;50.990;7.124;2023-03-14T16:05:21;157.07;;;7.43;;
5630;SDS011;2837;50.990;7.124;2023-03-14T16:07:47;160.73;;;7.33;;
5630;SDS011;2837;50.990;7.124;2023-03-14T16:10:13;158.47;;;7.80;;
5630;SDS011;2837;50.990;7.124;2023-03-14T16:12:39;159.57;;;8.50;;
5630;SDS011;2837;50.990;7.124;2023-03-14T16:15:06;157.27;;;7.00;;
5630;SDS011;2837;50.990;7.124;2023-03-14T16:17:32;159.77;;;6.67;;
5630;SDS011;2837;50.990;7.124;2023-03-14T16:19:59;156.77;;;6.60;;
5630;SDS011;2837;50.990;7.124;2023-03-14T16:22:25;158.77;;;7.67;;
5630;SDS011;2837;50.990;7.124;2023-03-14T16:24:50;156.33;;;7.50;;
5630;SDS011;2837;50.990;7.124;2023-03-14T16:27:16;158.20;;;7.03;;
5630;SDS011;2837;50.990;7.124;2023-03-14T16:29:41;155.77;;;6.67;;
5630;SDS011;2837;50.990;7.124;2023-03-14T16:32:07;160.97;;;7.50;;
5630;SDS011;2837;50.990;7.124;2023-03-14T16:34:33;154.70;;;6.30;;
5630;SDS011;2837;50.990;7.124;2023-03-14T16:37:02;161.00;;;7.27;;
5630;SDS011;2837;50.990;7.124;2023-03-14T16:39:27;156.67;;;6.73;;
5630;SDS011;2837;50.990;7.124;2023-03-14T16:41:56;157.17;;;7.23;;
5630;SDS011;2837;50.990;7.124;2023-03-14T16:44:22;160.73;;;7.13;;
5630;SDS011;2837;50.990;7.124;2023-03-14T16:46:47;158.33;;;7.30;;
5630;SDS011;2837;50.990;7.124;2023-03-14T16:49:13;154.87;;;7.03;;
5630;SDS011;2837;50.990;7.124;2023-03-14T16:51:38;157.57;;;7.00;;
5630;SDS011;2837;50.990;7.124;2023-03-14T16:54:04;161.67;;;7.60;;
5630;SDS011;2837;50.990;7.124;2023-03-14T16:56:30;159.20;;;7.20;;
5630;SDS011;2837;50.990;7.124;2023-03-14T16:58:55;155.37;;;7.10;;
5630;SDS011;2837;50.990;7.124;2023-03-14T17:01:21;159.00;;;7.70;;
5630;SDS011;2837;50.990;7.124;2023-03-14T17:03:47;160.00;;;6.90;;
5630;SDS011;2837;50.990;7.124;2023-03-14T17:06:15;155.57;;;7.00;;
5630;SDS011;2837;50.990;7.124;2023-03-14T17:08:43;164.93;;;7.13;;
5630;SDS011;2837;50.990;7.124;2023-03-14T17:11:09;158.63;;;7.43;;
5630;SDS011;2837;50.990;7.124;2023-03-14T17:13:35;156.80;;;7.00;;
5630;SDS011;2837;50.990;7.124;2023-03-14T17:16:02;158.53;;;8.20;;
5630;SDS011;2837;50.990;7.124;2023-03-14T17:18:28;156.40;;;6.53;;
5630;SDS011;2837;50.990;7.124;2023-03-14T17:20:55;158.77;;;7.37;;
5630;SDS011;2837;50.990;7.124;2023-03-14T17:23:23;155.00;;;6.77;;
5630;SDS011;2837;50.990;7.124;2023-03-14T17:25:49;155.80;;;6.80;;
5630;SDS011;2837;50.990;7.124;2023-03-14T17:28:15;155.77;;;6.60;;
5630;SDS011;2837;50.990;7.124;2023-03-14T17:30:42;164.20;;;7.63;;
5630;SDS011;2837;50.990;7.124;2023-03-14T17:33:08;155.00;;;6.43;;
5630;SDS011;2837;50.990;7.124;2023-03-14T17:35:33;157.70;;;7.20;;
5630;SDS011;2837;50.990;7.124;2023-03-14T17:37:59;155.80;;;6.87;;
5630;SDS011;2837;50.990;7.124;2023-03-14T17:40:25;156.70;;;7.37;;
5630;SDS011;2837;50.990;7.124;2023-03-14T17:42:50;157.30;;;7.40;;
5630;SDS011;2837;50.990;7.124;2023-03-14T17:45:16;156.60;;;7.40;;
5630;SDS011;2837;50.990;7.124;2023-03-14T17:47:42;155.20;;;6.80;;
5630;SDS011;2837;50.990;7.124;2023-03-14T17:50:08;159.80;;;7.20;;
5630;SDS011;2837;50.990;7.124;2023-03-14T17:52:34;157.73;;;7.40;;
5630;SDS011;2837;50.990;7.124;2023-03-14T17:55:00;155.97;;;6.53;;
5630;SDS011;2837;50.990;7.124;2023-03-14T17:57:27;157.50;;;7.00;;
5630;SDS011;2837;50.990;7.124;2023-03-14T17:59:52;155.63;;;7.00;;
5630;SDS011;2837;50.990;7.124;2023-03-14T18:02:18;157.47;;;7.20;;
5630;SDS011;2837;50.990;7.124;2023-03-14T18:04:46;156.00;;;7.17;;
5630;SDS011;2837;50.990;7.124;2023-03-14T18:07:11;159.33;;;7.30;;
5630;SDS011;2837;50.990;7.124;2023-03-14T18:09:38;157.30;;;7.17;;
5630;SDS011;2837;50.990;7.124;2023-03-14T18:12:04;156.50;;;7.30;;
5630;SDS011;2837;50.990;7.124;2023-03-14T18:14:30;157.13;;;7.10;;
5630;SDS011;2837;50.990;7.124;2023-03-14T18:16:55;157.67;;;7.40;;
5630;SDS011;2837;50.990;7.124;2023-03-14T18:19:21;155.77;;;6.97;;
5630;SDS011;2837;50.990;7.124;2023-03-14T18:21:47;159.07;;;7.30;;
5630;SDS011;2837;50.990;7.124;2023-03-14T18:24:15;157.57;;;7.47;;
5630;SDS011;2837;50.990;7.124;2023-03-14T18:26:44;157.17;;;7.20;;
5630;SDS011;2837;50.990;7.124;2023-03-14T18:29:10;155.10;;;6.40;;
5630;SDS011;2837;50.990;7.124;2023-03-14T18:31:39;157.67;;;7.00;;
5630;SDS011;2837;50.990;7.124;2023-03-14T18:34:05;156.50;;;7.50;;
5630;SDS011;2837;50.990;7.124;2023-03-14T18:36:31;156.27;;;7.10;;
5630;SDS011;2837;50.990;7.124;2023-03-14T18:38:57;155.47;;;7.20;;
5630;SDS011;2837;50.990;7.124;2023-03-14T18:41:23;156.50;;;7.47;;
5630;SDS011;2837;50.990;7.124;2023-03-14T18:43:49;158.37;;;7.60;;
5630;SDS011;2837;50.990;7.124;2023-03-14T18:46:17;155.97;;;7.00;;
5630;SDS011;2837;50.990;7.124;2023-03-14T18:48:44;159.33;;;7.30;;
5630;SDS011;2837;50.990;7.124;2023-03-14T18:51:11;155.93;;;6.63;;
5630;SDS011;2837;50.990;7.124;2023-03-14T18:53:41;157.87;;;6.70;;
5630;SDS011;2837;50.990;7.124;2023-03-14T18:56:07;156.67;;;7.47;;
5630;SDS011;2837;50.990;7.124;2023-03-14T18:58:35;157.70;;;7.10;;
5630;SDS011;2837;50.990;7.124;2023-03-14T19:01:02;158.63;;;7.20;;
5630;SDS011;2837;50.990;7.124;2023-03-14T19:03:28;156.57;;;7.00;;
5630;SDS011;2837;50.990;7.124;2023-03-14T19:05:55;162.20;;;6.90;;
5630;SDS011;2837;50.990;7.124;2023-03-14T19:08:22;160.10;;;7.13;;
5630;SDS011;2837;50.990;7.124;2023-03-14T19:10:49;156.87;;;7.40;;
5630;SDS011;2837;50.990;7.124;2023-03-14T19:13:15;158.10;;;7.10;;
5630;SDS011;2837;50.990;7.124;2023-03-14T19:15:41;155.77;;;6.93;;
5630;SDS011;2837;50.990;7.124;2023-03-14T19:18:07;162.57;;;7.47;;
5630;SDS011;2837;50.990;7.124;2023-03-14T19:20:35;156.67;;;6.93;;
5630;SDS011;2837;50.990;7.124;2023-03-14T19:23:01;157.37;;;7.50;;
5630;SDS011;2837;50.990;7.124;2023-03-14T19:25:27;156.87;;;7.03;;
5630;SDS011;2837;50.990;7.124;2023-03-14T19:27:52;157.73;;;7.70;;
5630;SDS011;2837;50.990;7.124;2023-03-14T19:30:18;157.67;;;7.13;;
5630;SDS011;2837;50.990;7.124;2023-03-14T19:32:43;157.47;;;7.00;;
5630;SDS011;2837;50.990;7.124;2023-03-14T19:35:09;158.83;;;7.20;;
5630;SDS011;2837;50.990;7.124;2023-03-14T19:37:35;160.80;;;8.30;;
5630;SDS011;2837;50.990;7.124;2023-03-14T19:40:00;155.47;;;6.70;;
5630;SDS011;2837;50.990;7.124;2023-03-14T19:42:26;156.90;;;7.37;;
5630;SDS011;2837;50.990;7.124;2023-03-14T19:44:51;161.03;;;7.47;;
5630;SDS011;2837;50.990;7.124;2023-03-14T19:47:18;160.00;;;7.30;;
5630;SDS011;2837;50.990;7.124;2023-03-14T19:49:43;157.00;;;6.60;;
5630;SDS011;2837;50.990;7.124;2023-03-14T19:52:09;160.17;;;7.07;;
5630;SDS011;2837;50.990;7.124;2023-03-14T19:54:34;159.40;;;6.90;;
5630;SDS011;2837;50.990;7.124;2023-03-14T19:57:00;157.87;;;6.33;;
5630;SDS011;2837;50.990;7.124;2023-03-14T19:59:29;159.30;;;7.30;;
5630;SDS011;2837;50.990;7.124;2023-03-14T20:01:55;161.57;;;7.57;;
5630;SDS011;2837;50.990;7.124;2023-03-14T20:04:22;160.00;;;7.37;;
5630;SDS011;2837;50.990;7.124;2023-03-14T20:06:49;156.37;;;7.17;;
5630;SDS011;2837;50.990;7.124;2023-03-14T20:09:17;158.10;;;6.97;;
5630;SDS011;2837;50.990;7.124;2023-03-14T20:11:43;160.93;;;7.27;;
5630;SDS011;2837;50.990;7.124;2023-03-14T20:14:09;163.20;;;7.37;;
5630;SDS011;2837;50.990;7.124;2023-03-14T20:16:36;160.00;;;6.50;;
5630;SDS011;2837;50.990;7.124;2023-03-14T20:19:05;159.47;;;7.03;;
5630;SDS011;2837;50.990;7.124;2023-03-14T20:21:32;156.47;;;6.97;;
5630;SDS011;2837;50.990;7.124;2023-03-14T20:23:58;158.40;;;6.93;;
5630;SDS011;2837;50.990;7.124;2023-03-14T20:26:24;156.67;;;6.40;;
5630;SDS011;2837;50.990;7.124;2023-03-14T20:28:51;159.27;;;7.60;;
5630;SDS011;2837;50.990;7.124;2023-03-14T20:31:16;157.33;;;6.80;;
5630;SDS011;2837;50.990;7.124;2023-03-14T20:33:42;159.70;;;7.30;;
5630;SDS011;2837;50.990;7.124;2023-03-14T20:36:07;159.13;;;6.93;;
5630;SDS011;2837;50.990;7.124;2023-03-14T20:38:33;158.70;;;6.83;;
5630;SDS011;2837;50.990;7.124;2023-03-14T20:41:00;158.63;;;6.50;;
5630;SDS011;2837;50.990;7.124;2023-03-14T20:43:26;155.97;;;6.77;;
5630;SDS011;2837;50.990;7.124;2023-03-14T20:45:54;158.93;;;6.63;;
5630;SDS011;2837;50.990;7.124;2023-03-14T20:48:21;156.90;;;6.30;;
5630;SDS011;2837;50.990;7.124;2023-03-14T20:50:47;161.20;;;7.83;;
5630;SDS011;2837;50.990;7.124;2023-03-14T20:53:13;159.40;;;7.37;;
5630;SDS011;2837;50.990;7.124;2023-03-14T20:55:38;156.73;;;6.93;;
5630;SDS011;2837;50.990;7.124;2023-03-14T20:58:04;159.27;;;6.90;;
5630;SDS011;2837;50.990;7.124;2023-03-14T21:00:30;159.37;;;7.00;;
5630;SDS011;2837;50.990;7.124;2023-03-14T21:02:56;157.40;;;7.43;;
5630;SDS011;2837;50.990;7.124;2023-03-14T21:05:22;159.33;;;6.80;;
5630;SDS011;2837;50.990;7.124;2023-03-14T21:07:47;157.03;;;6.63;;
5630;SDS011;2837;50.990;7.124;2023-03-14T21:10:13;156.77;;;6.60;;
5630;SDS011;2837;50.990;7.124;2023-03-14T21:12:40;160.60;;;6.30;;
5630;SDS011;2837;50.990;7.124;2023-03-14T21:15:06;158.30;;;6.47;;
5630;SDS011;2837;50.990;7.124;2023-03-14T21:17:33;157.97;;;7.00;;
5630;SDS011;2837;50.990;7.124;2023-03-14T21:19:59;161.27;;;7.27;;
5630;SDS011;2837;50.990;7.124;2023-03-14T21:22:25;165.87;;;7.53;;
5630;SDS011;2837;50.990;7.124;2023-03-14T21:24:53;158.57;;;7.50;;
5630;SDS011;2837;50.990;7.124;2023-03-14T21:27:19;163.57;;;8.03;;
5630;SDS011;2837;50.990;7.124;2023-03-14T21:29:45;161.77;;;8.07;;
5630;SDS011;2837;50.990;7.124;2023-03-14T21:32:11;160.67;;;7.83;;
5630;SDS011;2837;50.990;7.124;2023-03-14T21:34:37;162.07;;;7.80;;
5630;SDS011;2837;50.990;7.124;2023-03-14T21:37:03;160.37;;;7.60;;
5630;SDS011;2837;50.990;7.124;2023-03-14T21:39:29;159.07;;;7.57;;
5630;SDS011;2837;50.990;7.124;2023-03-14T21:41:54;164.20;;;7.80;;
5630;SDS011;2837;50.990;7.124;2023-03-14T21:44:20;162.60;;;7.40;;
5630;SDS011;2837;50.990;7.124;2023-03-14T21:46:46;158.67;;;7.10;;
5630;SDS011;2837;50.990;7.124;2023-03-14T21:49:13;156.67;;;6.90;;
5630;SDS011;2837;50.990;7.124;2023-03-14T21:51:40;158.43;;;6.90;;